Time;durP1;ratioP1;P1;durP2;ratioP2;P2;SDS_P1;SDS_P2;PMS_P1;PMS_P2;Temp;Humidity;BMP_temperature;BMP_pressure;BME280_temperature;BME280_humidity;BME280_pressure;Samples;Min_cycle;Max_cycle;Signal;HPM_P1;HPM_P2
2023/05/18 00:01:31;;;;;;;220.88;143.05;;;;;;;;;;4984668;28;20128;-65
2023/05/18 00:03:58;;;;;;;218.70;143.68;;;;;;;;;;4975290;28;20145;-61
2023/05/18 00:06:24;;;;;;;219.30;141.55;;;;;;;;;;4983604;28;20045;-63
2023/05/18 00:08:51;;;;;;;223.48;143.95;;;;;;;;;;4970246;28;20037;-64
2023/05/18 00:13:47;;;;;;;192.98;130.20;;;;;;;;;;5058025;27;20450;-62
2023/05/18 00:16:14;;;;;;;206.85;132.95;;;;;;;;;;5044313;28;20045;-64
2023/05/18 00:18:41;;;;;;;209.18;137.10;;;;;;;;;;5042309;28;20043;-63
2023/05/18 00:21:08;;;;;;;199.50;134.30;;;;;;;;;;5042758;28;20043;-62
2023/05/18 00:23:38;;;;;;;210.27;136.15;;;;;;;;;;5043473;28;20032;-64
2023/05/18 00:26:05;;;;;;;199.98;132.85;;;;;;;;;;5044011;28;20716;-63
2023/05/18 00:28:31;;;;;;;198.65;130.85;;;;;;;;;;5043163;28;20590;-63
2023/05/18 00:30:59;;;;;;;201.98;131.60;;;;;;;;;;5043975;28;20517;-64
2023/05/18 00:33:25;;;;;;;190.93;127.65;;;;;;;;;;5043036;28;20505;-63
2023/05/18 00:35:52;;;;;;;203.55;130.52;;;;;;;;;;5043898;28;20036;-63
2023/05/18 00:38:19;;;;;;;183.05;120.95;;;;;;;;;;5042861;28;20041;-65
2023/05/18 00:40:45;;;;;;;193.35;122.75;;;;;;;;;;5042876;28;20074;-64
2023/05/18 00:43:12;;;;;;;177.88;118.18;;;;;;;;;;5043793;28;20041;-61
2023/05/18 00:45:39;;;;;;;198.00;124.55;;;;;;;;;;5042573;28;20519;-65
2023/05/18 00:48:06;;;;;;;198.07;126.20;;;;;;;;;;5043784;28;20041;-64
2023/05/18 00:50:33;;;;;;;203.38;129.40;;;;;;;;;;5042762;28;20040;-65
2023/05/18 00:53:00;;;;;;;203.32;127.53;;;;;;;;;;5028913;28;20136;-63
2023/05/18 00:55:27;;;;;;;196.55;126.22;;;;;;;;;;5029257;28;20075;-64
2023/05/18 00:57:55;;;;;;;200.77;123.70;;;;;;;;;;5043895;28;20040;-64
2023/05/18 01:00:22;;;;;;;197.88;126.50;;;;;;;;;;5042505;28;20033;-63
2023/05/18 01:02:49;;;;;;;172.32;112.90;;;;;;;;;;5042527;28;20045;-64
2023/05/18 01:05:20;;;;;;;155.05;101.20;;;;;;;;;;5042626;28;20485;-63
2023/05/18 01:07:50;;;;;;;173.57;103.88;;;;;;;;;;5043719;28;20409;-64
2023/05/18 01:10:18;;;;;;;158.88;101.00;;;;;;;;;;5042330;28;20041;-64
2023/05/18 01:12:50;;;;;;;158.05;100.40;;;;;;;;;;5042714;28;20060;-64
2023/05/18 01:15:23;;;;;;;151.52;96.25;;;;;;;;;;5043025;28;20045;-65
2023/05/18 01:17:59;;;;;;;156.25;98.22;;;;;;;;;;5043650;28;20071;-64
2023/05/18 01:20:44;;;;;;;157.90;102.25;;;;;;;;;;5040628;28;20144;-64
2023/05/18 01:23:47;;;;;;;159.73;98.38;;;;;;;;;;5039507;28;20033;-63
2023/05/18 01:26:14;;;;;;;153.67;99.90;;;;;;;;;;4941912;28;20035;-64
2023/05/18 01:28:41;;;;;;;157.07;99.82;;;;;;;;;;5012362;28;20037;-64
2023/05/18 01:31:08;;;;;;;165.02;103.72;;;;;;;;;;5028939;28;20405;-64
2023/05/18 01:33:35;;;;;;;165.02;104.90;;;;;;;;;;5026518;28;20131;-65
2023/05/18 01:36:01;;;;;;;162.48;105.82;;;;;;;;;;5030363;28;20041;-64
2023/05/18 01:38:28;;;;;;;158.05;100.40;;;;;;;;;;5026788;28;20053;-66
2023/05/18 01:41:14;;;;;;;151.70;98.00;;;;;;;;;;5026788;28;20120;-64
2023/05/18 01:44:01;;;;;;;146.73;95.53;;;;;;;;;;5028617;28;21741;-64
2023/05/18 01:46:34;;;;;;;136.20;92.07;;;;;;;;;;5026558;28;20125;-65
2023/05/18 01:49:29;;;;;;;133.82;91.75;;;;;;;;;;4983712;28;20041;-64
2023/05/18 01:51:58;;;;;;;141.55;89.72;;;;;;;;;;4968362;28;20050;-67
2023/05/18 01:54:25;;;;;;;144.25;90.40;;;;;;;;;;4984864;28;20121;-65
2023/05/18 01:56:53;;;;;;;140.00;86.38;;;;;;;;;;4984482;28;20053;-63
2023/05/18 01:59:21;;;;;;;120.82;82.65;;;;;;;;;;4974289;28;20050;-65
2023/05/18 02:01:47;;;;;;;119.10;77.70;;;;;;;;;;4977179;28;20510;-65
2023/05/18 02:04:14;;;;;;;114.40;74.43;;;;;;;;;;4985992;28;21075;-64
2023/05/18 02:06:40;;;;;;;110.70;73.20;;;;;;;;;;4984645;28;20089;-66
2023/05/18 02:09:07;;;;;;;109.38;69.97;;;;;;;;;;4975082;28;20038;-64
2023/05/18 02:11:34;;;;;;;113.20;72.47;;;;;;;;;;4983256;28;20077;-64
2023/05/18 02:14:01;;;;;;;107.68;71.45;;;;;;;;;;4985575;28;20074;-63
2023/05/18 02:16:27;;;;;;;110.80;68.93;;;;;;;;;;4983838;28;20042;-65
2023/05/18 02:18:54;;;;;;;97.20;66.05;;;;;;;;;;4979826;28;20046;-64
2023/05/18 02:21:21;;;;;;;109.03;67.43;;;;;;;;;;5020293;28;20605;-65
2023/05/18 02:23:48;;;;;;;106.35;66.13;;;;;;;;;;5009486;28;20054;-64
2023/05/18 02:26:14;;;;;;;98.90;65.10;;;;;;;;;;5028580;28;20037;-64
2023/05/18 02:28:41;;;;;;;106.03;63.83;;;;;;;;;;5027294;28;20052;-64
2023/05/18 02:31:09;;;;;;;98.65;62.33;;;;;;;;;;5027334;28;20054;-64
2023/05/18 02:33:42;;;;;;;98.22;61.20;;;;;;;;;;5027962;28;20235;-65
2023/05/18 02:36:09;;;;;;;98.88;59.45;;;;;;;;;;5024359;28;20042;-65
2023/05/18 02:38:37;;;;;;;88.30;57.63;;;;;;;;;;5027370;28;20532;-63
2023/05/18 02:41:03;;;;;;;91.93;57.25;;;;;;;;;;5028628;28;20056;-63
2023/05/18 02:43:30;;;;;;;87.90;55.80;;;;;;;;;;5027325;28;20135;-62
2023/05/18 02:46:00;;;;;;;88.85;55.88;;;;;;;;;;5029621;28;20037;-64
2023/05/18 02:48:26;;;;;;;81.28;52.05;;;;;;;;;;5019236;28;20047;-65
2023/05/18 02:50:53;;;;;;;79.15;49.03;;;;;;;;;;5020153;28;20037;-61
2023/05/18 02:53:20;;;;;;;75.25;47.05;;;;;;;;;;5027123;28;20053;-62
2023/05/18 02:55:47;;;;;;;77.03;45.47;;;;;;;;;;5028700;28;20044;-63
2023/05/18 02:58:14;;;;;;;70.32;44.33;;;;;;;;;;5028173;28;20069;-64
2023/05/18 03:00:41;;;;;;;69.55;41.95;;;;;;;;;;5029302;28;20037;-62
2023/05/18 03:03:09;;;;;;;70.38;41.58;;;;;;;;;;5030132;28;20045;-59
2023/05/18 03:05:36;;;;;;;60.25;39.95;;;;;;;;;;5028946;28;20036;-59
2023/05/18 03:08:03;;;;;;;61.40;37.65;;;;;;;;;;5029273;28;20045;-58
2023/05/18 03:10:30;;;;;;;62.33;37.38;;;;;;;;;;5029526;28;20044;-60
2023/05/18 03:12:57;;;;;;;59.70;37.42;;;;;;;;;;5026078;28;20048;-60
2023/05/18 03:15:23;;;;;;;54.15;34.45;;;;;;;;;;5028899;28;20050;-60
2023/05/18 03:17:50;;;;;;;63.70;35.85;;;;;;;;;;5026934;28;20122;-60
2023/05/18 03:20:18;;;;;;;53.78;34.90;;;;;;;;;;5029512;28;20542;-59
2023/05/18 03:22:45;;;;;;;58.75;34.95;;;;;;;;;;5028312;28;20166;-58
2023/05/18 03:25:11;;;;;;;57.08;34.63;;;;;;;;;;5028497;28;20037;-60
2023/05/18 03:27:38;;;;;;;62.17;34.40;;;;;;;;;;5024672;28;20111;-56
2023/05/18 03:30:05;;;;;;;54.58;33.95;;;;;;;;;;5026614;28;20049;-57
2023/05/18 03:32:32;;;;;;;60.97;35.42;;;;;;;;;;5026959;28;20561;-59
2023/05/18 03:34:59;;;;;;;55.95;32.72;;;;;;;;;;5027440;28;20037;-61
2023/05/18 03:37:26;;;;;;;50.35;32.17;;;;;;;;;;5024697;28;20036;-61
2023/05/18 03:39:55;;;;;;;50.65;31.63;;;;;;;;;;5025768;28;20417;-58
2023/05/18 03:42:21;;;;;;;50.72;29.38;;;;;;;;;;5028040;28;20525;-59
2023/05/18 03:44:48;;;;;;;56.50;31.33;;;;;;;;;;5026566;28;20082;-59
2023/05/18 03:47:15;;;;;;;55.88;31.25;;;;;;;;;;5028291;28;20029;-61
2023/05/18 03:49:41;;;;;;;48.20;29.05;;;;;;;;;;5024900;28;20071;-62
2023/05/18 03:52:08;;;;;;;45.55;27.63;;;;;;;;;;5010384;28;20118;-63
2023/05/18 03:54:35;;;;;;;49.13;27.02;;;;;;;;;;5028639;28;20044;-58
2023/05/18 03:57:01;;;;;;;46.40;25.63;;;;;;;;;;5015543;28;21046;-57
2023/05/18 03:59:28;;;;;;;42.40;25.42;;;;;;;;;;5023878;28;20040;-61
2023/05/18 04:01:55;;;;;;;42.72;25.17;;;;;;;;;;5027079;28;20045;-59
2023/05/18 04:04:22;;;;;;;42.83;23.83;;;;;;;;;;5026010;28;20037;-60
2023/05/18 04:06:50;;;;;;;41.08;23.67;;;;;;;;;;5027291;28;20036;-60
2023/05/18 04:09:17;;;;;;;39.55;22.90;;;;;;;;;;5027789;28;20037;-59
2023/05/18 04:11:44;;;;;;;45.95;23.25;;;;;;;;;;5027968;28;20049;-63
2023/05/18 04:14:12;;;;;;;38.50;22.85;;;;;;;;;;5026254;28;20042;-62
2023/05/18 04:16:39;;;;;;;39.97;23.05;;;;;;;;;;5028581;28;20052;-58
2023/05/18 04:19:07;;;;;;;36.50;21.48;;;;;;;;;;5027277;28;20140;-59
2023/05/18 04:21:34;;;;;;;38.60;22.70;;;;;;;;;;5029368;28;20057;-60
2023/05/18 04:24:04;;;;;;;34.92;22.45;;;;;;;;;;5030738;28;20041;-59
2023/05/18 04:26:31;;;;;;;38.60;21.40;;;;;;;;;;5026479;28;20118;-59
2023/05/18 04:28:59;;;;;;;40.63;22.05;;;;;;;;;;5026266;28;20045;-61
2023/05/18 04:31:28;;;;;;;42.65;21.23;;;;;;;;;;5029955;28;20390;-58
2023/05/18 04:33:56;;;;;;;40.72;21.85;;;;;;;;;;5028224;28;20048;-61
2023/05/18 04:36:24;;;;;;;37.22;21.55;;;;;;;;;;5025842;28;20552;-62
2023/05/18 04:38:51;;;;;;;37.83;21.77;;;;;;;;;;5026347;28;20041;-60
2023/05/18 04:41:21;;;;;;;39.28;21.55;;;;;;;;;;5026067;28;20059;-60
2023/05/18 04:43:51;;;;;;;38.72;21.58;;;;;;;;;;5027854;28;20037;-61
2023/05/18 04:46:17;;;;;;;35.55;20.73;;;;;;;;;;5026826;28;20037;-59
2023/05/18 04:48:48;;;;;;;36.60;20.63;;;;;;;;;;5026613;28;20049;-59
2023/05/18 04:51:20;;;;;;;40.45;21.48;;;;;;;;;;5028826;28;20498;-60
2023/05/18 04:53:49;;;;;;;38.70;20.88;;;;;;;;;;5027129;28;20673;-61
2023/05/18 04:56:16;;;;;;;43.10;21.83;;;;;;;;;;4989475;28;20029;-59
2023/05/18 04:58:48;;;;;;;38.13;21.40;;;;;;;;;;5026346;28;20048;-60
2023/05/18 05:01:15;;;;;;;38.55;21.08;;;;;;;;;;5030284;28;20050;-60
2023/05/18 05:03:42;;;;;;;41.90;21.63;;;;;;;;;;5030926;28;20152;-59
2023/05/18 05:06:09;;;;;;;40.65;22.38;;;;;;;;;;5031665;28;20103;-59
2023/05/18 05:08:39;;;;;;;41.30;22.05;;;;;;;;;;5028509;28;20072;-60
2023/05/18 05:11:06;;;;;;;43.92;22.35;;;;;;;;;;5033090;28;20140;-60
2023/05/18 05:13:34;;;;;;;36.50;21.15;;;;;;;;;;5030218;28;20176;-59
2023/05/18 05:16:01;;;;;;;44.60;22.98;;;;;;;;;;5032556;28;20056;-59
2023/05/18 05:18:28;;;;;;;39.33;21.65;;;;;;;;;;5030178;28;20424;-58
2023/05/18 05:20:58;;;;;;;41.47;23.23;;;;;;;;;;5031739;28;20926;-60
2023/05/18 05:23:25;;;;;;;42.92;22.75;;;;;;;;;;5029831;28;20041;-59
2023/05/18 05:25:51;;;;;;;43.60;23.58;;;;;;;;;;5031468;28;20228;-59
2023/05/18 05:28:18;;;;;;;48.05;24.10;;;;;;;;;;5029711;28;20064;-61
2023/05/18 05:30:45;;;;;;;44.80;25.08;;;;;;;;;;5010843;28;20033;-60
2023/05/18 05:33:11;;;;;;;49.30;26.25;;;;;;;;;;5029205;28;20113;-59
2023/05/18 05:35:38;;;;;;;48.95;28.02;;;;;;;;;;5028964;28;20082;-59
2023/05/18 05:38:05;;;;;;;54.05;29.02;;;;;;;;;;5030231;28;20036;-61
2023/05/18 05:40:32;;;;;;;59.15;29.35;;;;;;;;;;5029143;28;20037;-59
2023/05/18 05:42:58;;;;;;;58.22;31.90;;;;;;;;;;5030553;28;20045;-59
2023/05/18 05:45:27;;;;;;;75.65;32.65;;;;;;;;;;5030435;28;20534;-59
2023/05/18 05:47:54;;;;;;;62.33;33.42;;;;;;;;;;5030330;28;20047;-58
2023/05/18 05:50:20;;;;;;;57.70;31.83;;;;;;;;;;5030958;28;20274;-58
2023/05/18 05:52:47;;;;;;;63.88;31.70;;;;;;;;;;5030626;28;20813;-58
2023/05/18 05:55:13;;;;;;;59.67;32.78;;;;;;;;;;5030798;28;20069;-58
2023/05/18 05:57:41;;;;;;;58.22;31.30;;;;;;;;;;5030334;28;20709;-62
2023/05/18 06:00:09;;;;;;;58.53;31.85;;;;;;;;;;5030474;28;20572;-59
2023/05/18 06:02:36;;;;;;;57.53;32.35;;;;;;;;;;5029844;28;20127;-58
2023/05/18 06:05:03;;;;;;;56.40;31.35;;;;;;;;;;5032256;28;20049;-60
2023/05/18 06:07:30;;;;;;;53.63;29.40;;;;;;;;;;5031431;28;20124;-58
2023/05/18 06:09:56;;;;;;;53.15;31.45;;;;;;;;;;5027975;28;20494;-61
2023/05/18 06:12:23;;;;;;;58.78;31.52;;;;;;;;;;5030456;28;20057;-61
2023/05/18 06:14:53;;;;;;;55.15;32.35;;;;;;;;;;5033024;28;20037;-62
2023/05/18 06:17:20;;;;;;;58.85;31.40;;;;;;;;;;5028952;28;20164;-59
2023/05/18 06:19:46;;;;;;;58.30;31.55;;;;;;;;;;5030156;28;20029;-59
2023/05/18 06:22:13;;;;;;;58.40;31.23;;;;;;;;;;5032472;28;20307;-59
2023/05/18 06:24:39;;;;;;;61.05;32.38;;;;;;;;;;5031813;28;20037;-59
2023/05/18 06:27:06;;;;;;;69.03;32.83;;;;;;;;;;5030601;28;20057;-61
2023/05/18 06:29:33;;;;;;;55.60;32.22;;;;;;;;;;5028544;28;20076;-59
2023/05/18 06:32:00;;;;;;;60.95;33.03;;;;;;;;;;5030003;28;20044;-59
2023/05/18 06:34:27;;;;;;;57.30;31.05;;;;;;;;;;5030650;28;20045;-59
2023/05/18 06:36:53;;;;;;;58.15;31.92;;;;;;;;;;5029134;28;20047;-59
2023/05/18 06:39:20;;;;;;;61.97;31.98;;;;;;;;;;5028448;28;20110;-61
2023/05/18 06:41:46;;;;;;;61.88;33.55;;;;;;;;;;5018103;28;20099;-60
2023/05/18 06:44:13;;;;;;;59.10;33.30;;;;;;;;;;5028861;28;20258;-60
2023/05/18 06:46:40;;;;;;;63.00;34.10;;;;;;;;;;5029315;28;20770;-60
2023/05/18 06:49:07;;;;;;;63.78;32.92;;;;;;;;;;5029792;28;20037;-60
2023/05/18 06:51:33;;;;;;;56.88;32.38;;;;;;;;;;5029488;28;20044;-58
2023/05/18 06:54:00;;;;;;;67.75;33.42;;;;;;;;;;5021430;28;20501;-61
2023/05/18 06:56:28;;;;;;;60.65;32.95;;;;;;;;;;5028649;28;20036;-58
2023/05/18 06:58:55;;;;;;;62.22;32.15;;;;;;;;;;5029471;28;20041;-59
2023/05/18 07:01:22;;;;;;;57.88;32.60;;;;;;;;;;5027166;28;20970;-58
2023/05/18 07:03:49;;;;;;;61.22;33.65;;;;;;;;;;5029931;28;20163;-59
2023/05/18 07:06:15;;;;;;;57.83;32.42;;;;;;;;;;5029535;28;20063;-58
2023/05/18 07:08:44;;;;;;;61.55;33.63;;;;;;;;;;5027966;28;20046;-59
2023/05/18 07:11:10;;;;;;;58.00;30.42;;;;;;;;;;5027931;28;20083;-59
2023/05/18 07:13:37;;;;;;;43.85;23.83;;;;;;;;;;5029502;28;20073;-58
2023/05/18 07:16:04;;;;;;;38.50;19.05;;;;;;;;;;5028889;28;20514;-59
2023/05/18 07:18:30;;;;;;;37.03;17.70;;;;;;;;;;5026521;28;20410;-59
2023/05/18 07:20:57;;;;;;;32.53;16.17;;;;;;;;;;5028430;28;20187;-62
2023/05/18 07:23:23;;;;;;;27.98;16.13;;;;;;;;;;5027496;28;20068;-61
2023/05/18 07:25:51;;;;;;;32.58;15.48;;;;;;;;;;5027743;28;20036;-58
2023/05/18 07:28:17;;;;;;;26.58;15.15;;;;;;;;;;5027522;28;20047;-58
2023/05/18 07:30:44;;;;;;;28.40;15.00;;;;;;;;;;5027879;28;20060;-60
2023/05/18 07:33:10;;;;;;;26.77;14.90;;;;;;;;;;5028936;28;20152;-58
2023/05/18 07:35:37;;;;;;;38.00;15.73;;;;;;;;;;5027593;28;20083;-61
2023/05/18 07:38:03;;;;;;;34.63;15.80;;;;;;;;;;5025055;28;21821;-62
2023/05/18 07:40:30;;;;;;;32.20;16.10;;;;;;;;;;5028923;28;20827;-59
2023/05/18 07:42:56;;;;;;;29.65;16.23;;;;;;;;;;5029634;28;20112;-59
2023/05/18 07:45:23;;;;;;;29.30;15.18;;;;;;;;;;5026666;28;20095;-62
2023/05/18 07:47:50;;;;;;;31.15;14.98;;;;;;;;;;5027258;28;20378;-59
2023/05/18 07:50:16;;;;;;;27.63;14.43;;;;;;;;;;5007868;28;20038;-60
2023/05/18 07:52:43;;;;;;;27.90;15.15;;;;;;;;;;5025313;28;20049;-59
2023/05/18 07:55:10;;;;;;;28.10;14.85;;;;;;;;;;5027286;28;20068;-60
2023/05/18 07:57:37;;;;;;;32.97;14.80;;;;;;;;;;5025167;28;20041;-58
2023/05/18 08:00:05;;;;;;;27.25;14.77;;;;;;;;;;5028804;28;20037;-60
2023/05/18 08:02:33;;;;;;;27.73;15.25;;;;;;;;;;5026425;28;20104;-58
2023/05/18 08:04:59;;;;;;;27.27;15.43;;;;;;;;;;5009799;28;20044;-61
2023/05/18 08:07:28;;;;;;;25.58;14.85;;;;;;;;;;5026135;28;20064;-62
2023/05/18 08:09:55;;;;;;;33.08;14.20;;;;;;;;;;5027463;28;20069;-58
2023/05/18 08:12:23;;;;;;;30.52;14.80;;;;;;;;;;5025375;28;20048;-59
2023/05/18 08:14:50;;;;;;;28.30;15.20;;;;;;;;;;5026526;28;20041;-58
2023/05/18 08:17:18;;;;;;;23.95;14.15;;;;;;;;;;5028194;28;20592;-57
2023/05/18 08:19:46;;;;;;;31.45;14.40;;;;;;;;;;5027297;28;20042;-58
2023/05/18 08:22:12;;;;;;;26.38;13.85;;;;;;;;;;5028605;28;20044;-58
2023/05/18 08:24:39;;;;;;;25.83;14.05;;;;;;;;;;5027512;28;20128;-59
2023/05/18 08:27:08;;;;;;;29.92;14.25;;;;;;;;;;5028499;28;20041;-59
2023/05/18 08:29:35;;;;;;;24.83;13.50;;;;;;;;;;5028258;28;20026;-59
2023/05/18 08:32:01;;;;;;;28.83;14.57;;;;;;;;;;5028459;28;20529;-59
2023/05/18 08:34:28;;;;;;;27.17;14.43;;;;;;;;;;5029951;28;20049;-56
2023/05/18 08:36:56;;;;;;;23.98;13.00;;;;;;;;;;5031993;28;20052;-58
2023/05/18 08:39:23;;;;;;;29.52;12.75;;;;;;;;;;5030853;28;20037;-60
2023/05/18 08:41:57;;;;;;;22.83;12.80;;;;;;;;;;5033458;28;20045;-60
2023/05/18 08:44:30;;;;;;;21.48;11.88;;;;;;;;;;5031113;28;20048;-60
2023/05/18 08:46:57;;;;;;;22.08;11.23;;;;;;;;;;5032915;28;20060;-56
2023/05/18 08:49:24;;;;;;;18.92;12.20;;;;;;;;;;5030565;28;20044;-60
2023/05/18 08:51:55;;;;;;;21.17;11.75;;;;;;;;;;5032486;28;20045;-60
2023/05/18 08:54:22;;;;;;;18.98;11.20;;;;;;;;;;5031519;28;20040;-56
2023/05/18 08:56:49;;;;;;;21.77;11.85;;;;;;;;;;5032220;28;20724;-58
2023/05/18 08:59:18;;;;;;;19.83;11.30;;;;;;;;;;5032406;28;20040;-61
2023/05/18 09:01:45;;;;;;;22.98;11.35;;;;;;;;;;5032903;28;20037;-61
2023/05/18 09:04:12;;;;;;;21.38;11.45;;;;;;;;;;5032376;28;20675;-59
2023/05/18 09:06:39;;;;;;;19.92;11.35;;;;;;;;;;5031863;28;20049;-58
2023/05/18 09:09:06;;;;;;;21.77;10.60;;;;;;;;;;5032731;28;21690;-61
2023/05/18 09:11:34;;;;;;;22.13;10.98;;;;;;;;;;5029013;28;20044;-57
2023/05/18 09:14:01;;;;;;;20.85;11.60;;;;;;;;;;5030959;28;20136;-58
2023/05/18 09:16:29;;;;;;;20.77;10.50;;;;;;;;;;5032792;28;20110;-57
2023/05/18 09:18:55;;;;;;;18.70;10.65;;;;;;;;;;5033017;28;20596;-60
2023/05/18 09:21:22;;;;;;;28.90;12.30;;;;;;;;;;5032182;28;20072;-57
2023/05/18 09:23:50;;;;;;;19.83;10.98;;;;;;;;;;5031102;28;20072;-58
2023/05/18 09:26:17;;;;;;;20.85;11.00;;;;;;;;;;5033266;28;20040;-58
2023/05/18 09:28:44;;;;;;;16.27;10.13;;;;;;;;;;5013502;28;20033;-58
2023/05/18 09:31:16;;;;;;;21.38;10.80;;;;;;;;;;5032241;28;20071;-60
2023/05/18 09:33:44;;;;;;;21.38;10.13;;;;;;;;;;5032090;28;20049;-58
2023/05/18 09:36:11;;;;;;;19.90;10.77;;;;;;;;;;5033496;28;20920;-59
2023/05/18 09:38:45;;;;;;;16.17;9.95;;;;;;;;;;5030018;28;20029;-57
2023/05/18 09:41:16;;;;;;;24.88;10.80;;;;;;;;;;5025211;28;20048;-57
2023/05/18 09:43:43;;;;;;;17.60;11.18;;;;;;;;;;5029999;28;20037;-57
2023/05/18 09:46:10;;;;;;;19.85;10.88;;;;;;;;;;5029253;28;20044;-58
2023/05/18 09:48:37;;;;;;;22.88;11.25;;;;;;;;;;5029065;28;20049;-61
2023/05/18 09:51:05;;;;;;;18.60;10.45;;;;;;;;;;5030195;28;20119;-59
2023/05/18 09:53:36;;;;;;;23.52;10.73;;;;;;;;;;5031186;28;20477;-60
2023/05/18 09:56:08;;;;;;;21.70;10.38;;;;;;;;;;5033362;28;20171;-57
2023/05/18 09:58:35;;;;;;;16.92;10.05;;;;;;;;;;5030824;28;20474;-58
2023/05/18 10:01:02;;;;;;;20.80;10.85;;;;;;;;;;5033316;28;20448;-58
2023/05/18 10:03:32;;;;;;;19.15;10.20;;;;;;;;;;5031643;28;20045;-57
2023/05/18 10:06:09;;;;;;;16.55;9.77;;;;;;;;;;5030983;28;20044;-57
2023/05/18 10:08:36;;;;;;;16.95;10.65;;;;;;;;;;5030427;28;20178;-60
2023/05/18 10:11:03;;;;;;;17.70;9.77;;;;;;;;;;5032348;28;20041;-59
2023/05/18 10:13:30;;;;;;;18.02;9.93;;;;;;;;;;5030318;28;20053;-58
2023/05/18 10:15:58;;;;;;;21.02;10.23;;;;;;;;;;5031629;28;20629;-58
2023/05/18 10:18:26;;;;;;;20.02;10.38;;;;;;;;;;5029397;28;20038;-58
2023/05/18 10:20:54;;;;;;;21.23;10.63;;;;;;;;;;5031681;28;20464;-58
2023/05/18 10:23:23;;;;;;;19.23;10.07;;;;;;;;;;5028415;28;20347;-60
2023/05/18 10:25:51;;;;;;;21.83;10.25;;;;;;;;;;5030967;28;20047;-58
2023/05/18 10:28:26;;;;;;;22.30;10.05;;;;;;;;;;5029904;28;20036;-58
2023/05/18 10:30:53;;;;;;;17.77;9.95;;;;;;;;;;5029025;28;20106;-60
2023/05/18 10:33:22;;;;;;;19.10;9.65;;;;;;;;;;5029924;28;20045;-58
2023/05/18 10:35:49;;;;;;;21.77;10.45;;;;;;;;;;5030531;28;20923;-59
2023/05/18 10:38:20;;;;;;;17.45;10.18;;;;;;;;;;5029810;28;20040;-59
2023/05/18 10:40:48;;;;;;;20.80;9.93;;;;;;;;;;5030853;28;20072;-59
2023/05/18 10:43:16;;;;;;;15.55;9.82;;;;;;;;;;5031401;28;20051;-59
2023/05/18 10:45:44;;;;;;;18.40;9.60;;;;;;;;;;5025169;28;20385;-56
2023/05/18 10:48:11;;;;;;;18.35;9.80;;;;;;;;;;5028933;28;20046;-57
2023/05/18 10:50:39;;;;;;;23.65;10.00;;;;;;;;;;5032122;28;20025;-56
2023/05/18 10:53:06;;;;;;;21.00;10.10;;;;;;;;;;5031144;28;20052;-61
2023/05/18 10:55:33;;;;;;;20.80;10.43;;;;;;;;;;5028769;28;20041;-57
2023/05/18 10:58:03;;;;;;;20.55;10.32;;;;;;;;;;5028530;28;20091;-57
2023/05/18 11:00:31;;;;;;;18.17;10.23;;;;;;;;;;5029736;28;20042;-57
2023/05/18 11:02:58;;;;;;;20.02;10.95;;;;;;;;;;5028716;28;20041;-59
2023/05/18 11:05:25;;;;;;;16.55;10.13;;;;;;;;;;5027323;28;21853;-58
2023/05/18 11:08:00;;;;;;;25.58;11.07;;;;;;;;;;5028156;28;20432;-58
2023/05/18 11:10:33;;;;;;;17.75;10.60;;;;;;;;;;5029151;28;20045;-55
2023/05/18 11:13:03;;;;;;;21.23;10.65;;;;;;;;;;5025696;28;20869;-53
2023/05/18 11:15:48;;;;;;;21.77;11.52;;;;;;;;;;5031213;28;20052;-59
2023/05/18 11:18:15;;;;;;;21.23;11.07;;;;;;;;;;5029796;28;20548;-56
2023/05/18 11:20:45;;;;;;;25.80;11.02;;;;;;;;;;5029857;28;20075;-59
2023/05/18 11:23:17;;;;;;;20.38;11.20;;;;;;;;;;5029835;28;20041;-60
2023/05/18 11:25:44;;;;;;;25.65;11.10;;;;;;;;;;5028572;28;20740;-57
2023/05/18 11:28:12;;;;;;;29.80;11.88;;;;;;;;;;5012708;28;20044;-63
2023/05/18 11:30:43;;;;;;;29.23;12.35;;;;;;;;;;5029785;28;20124;-58
2023/05/18 11:33:10;;;;;;;25.95;11.73;;;;;;;;;;5029653;28;20044;-64
2023/05/18 11:35:56;;;;;;;22.27;12.10;;;;;;;;;;5027844;28;20041;-56
2023/05/18 11:38:22;;;;;;;25.13;12.10;;;;;;;;;;5026391;28;20041;-60
2023/05/18 11:40:52;;;;;;;27.15;13.07;;;;;;;;;;5028873;28;20107;-55
2023/05/18 11:43:22;;;;;;;25.15;12.98;;;;;;;;;;5030371;28;20052;-56
2023/05/18 11:45:55;;;;;;;31.88;12.82;;;;;;;;;;5032341;28;20070;-57
2023/05/18 11:48:25;;;;;;;21.35;12.15;;;;;;;;;;5031846;28;20069;-57
2023/05/18 11:50:55;;;;;;;21.77;12.25;;;;;;;;;;5031676;28;20071;-57
2023/05/18 11:53:27;;;;;;;25.70;12.60;;;;;;;;;;5031684;28;20506;-61
2023/05/18 11:55:55;;;;;;;21.45;11.73;;;;;;;;;;5015349;28;20556;-57
2023/05/18 11:58:24;;;;;;;25.88;12.98;;;;;;;;;;5025887;28;20459;-58
2023/05/18 12:00:51;;;;;;;22.52;12.02;;;;;;;;;;5028242;28;20037;-60
2023/05/18 12:03:24;;;;;;;26.92;12.38;;;;;;;;;;5028216;28;20084;-59
2023/05/18 12:05:51;;;;;;;25.52;12.95;;;;;;;;;;5026864;28;20111;-59
2023/05/18 12:08:18;;;;;;;25.35;12.55;;;;;;;;;;5027048;28;20033;-59
2023/05/18 12:10:48;;;;;;;25.02;12.32;;;;;;;;;;5027880;28;20036;-61
2023/05/18 12:13:16;;;;;;;22.98;12.57;;;;;;;;;;5026998;28;20052;-61
2023/05/18 12:15:43;;;;;;;29.08;12.07;;;;;;;;;;5028213;28;20041;-60
2023/05/18 12:18:11;;;;;;;27.00;12.00;;;;;;;;;;5026656;28;20044;-60
2023/05/18 12:20:40;;;;;;;22.92;11.65;;;;;;;;;;5028612;28;20702;-60
2023/05/18 12:23:07;;;;;;;20.85;12.27;;;;;;;;;;5017170;28;20048;-63
2023/05/18 12:25:33;;;;;;;24.08;12.25;;;;;;;;;;5008147;28;20098;-63
2023/05/18 12:28:01;;;;;;;22.88;12.90;;;;;;;;;;5025640;28;20556;-61
2023/05/18 12:30:33;;;;;;;25.38;12.68;;;;;;;;;;5027188;28;20036;-60
2023/05/18 12:33:05;;;;;;;24.90;13.43;;;;;;;;;;5030296;28;20390;-59
2023/05/18 12:35:32;;;;;;;21.55;13.88;;;;;;;;;;5027560;28;20116;-63
2023/05/18 12:38:00;;;;;;;24.38;12.45;;;;;;;;;;5025498;28;20124;-62
2023/05/18 12:40:27;;;;;;;28.40;13.55;;;;;;;;;;5029618;28;20056;-60
2023/05/18 12:42:53;;;;;;;28.98;13.02;;;;;;;;;;5030541;28;20149;-60
2023/05/18 12:45:22;;;;;;;26.23;13.15;;;;;;;;;;5009889;28;20037;-62
2023/05/18 12:47:53;;;;;;;23.38;13.32;;;;;;;;;;5026767;28;20037;-60
2023/05/18 12:50:20;;;;;;;24.40;12.48;;;;;;;;;;5033635;28;20386;-59
2023/05/18 12:52:48;;;;;;;25.25;12.73;;;;;;;;;;5026882;28;20160;-60
2023/05/18 12:55:21;;;;;;;24.77;12.65;;;;;;;;;;5014392;28;20139;-59
2023/05/18 12:58:00;;;;;;;26.65;14.00;;;;;;;;;;5023697;28;20045;-60
2023/05/18 13:00:27;;;;;;;23.50;13.10;;;;;;;;;;5025521;28;20037;-60
2023/05/18 13:03:04;;;;;;;24.25;12.73;;;;;;;;;;5009655;28;20045;-58
2023/05/18 13:05:31;;;;;;;31.30;14.18;;;;;;;;;;5026995;28;20040;-62
2023/05/18 13:07:58;;;;;;;19.95;12.80;;;;;;;;;;5024793;28;20052;-61
2023/05/18 13:10:24;;;;;;;24.15;13.13;;;;;;;;;;5025990;28;20240;-62
2023/05/18 13:12:52;;;;;;;33.63;13.68;;;;;;;;;;5025584;28;20060;-63
2023/05/18 13:15:20;;;;;;;28.23;13.80;;;;;;;;;;5026339;28;20041;-63
2023/05/18 13:18:01;;;;;;;28.40;15.13;;;;;;;;;;5024115;28;20822;-60
2023/05/18 13:20:54;;;;;;;26.92;16.15;;;;;;;;;;5025384;28;20041;-63
2023/05/18 13:23:22;;;;;;;36.30;17.52;;;;;;;;;;5009168;28;20057;-60
2023/05/18 13:25:49;;;;;;;34.15;16.67;;;;;;;;;;5009080;28;20053;-62
2023/05/18 13:28:16;;;;;;;44.80;18.92;;;;;;;;;;5028793;28;20045;-59
2023/05/18 13:30:43;;;;;;;40.45;20.05;;;;;;;;;;5027838;28;20064;-62
2023/05/18 13:33:10;;;;;;;41.60;20.75;;;;;;;;;;5030128;28;20040;-60
2023/05/18 13:35:40;;;;;;;40.45;21.45;;;;;;;;;;5027427;28;20155;-63
2023/05/18 13:38:07;;;;;;;47.63;21.38;;;;;;;;;;5026481;28;20041;-62
2023/05/18 13:40:33;;;;;;;43.70;22.80;;;;;;;;;;5027216;28;20034;-61
2023/05/18 13:43:00;;;;;;;43.88;23.38;;;;;;;;;;5030349;28;20059;-61
2023/05/18 13:45:26;;;;;;;43.03;23.75;;;;;;;;;;5029580;28;20064;-63
2023/05/18 13:47:53;;;;;;;46.75;25.20;;;;;;;;;;5031245;28;20053;-60
2023/05/18 13:50:21;;;;;;;49.22;25.30;;;;;;;;;;5029914;28;20064;-63
2023/05/18 13:52:48;;;;;;;58.20;26.75;;;;;;;;;;5028077;28;20054;-63
2023/05/18 13:55:15;;;;;;;54.17;29.25;;;;;;;;;;5028248;28;20091;-62
2023/05/18 13:57:41;;;;;;;52.25;29.85;;;;;;;;;;5029033;28;20056;-60
2023/05/18 14:00:11;;;;;;;55.53;29.65;;;;;;;;;;5028738;28;20128;-61
2023/05/18 14:02:41;;;;;;;61.45;31.98;;;;;;;;;;5027174;28;20123;-60
2023/05/18 14:05:08;;;;;;;66.40;35.13;;;;;;;;;;5029577;28;20041;-60
2023/05/18 14:07:36;;;;;;;75.38;38.78;;;;;;;;;;5025245;28;20052;-62
2023/05/18 14:10:03;;;;;;;73.82;38.97;;;;;;;;;;5030238;28;20037;-59
2023/05/18 14:12:29;;;;;;;74.07;39.80;;;;;;;;;;5028108;28;20140;-59
2023/05/18 14:14:56;;;;;;;79.43;38.50;;;;;;;;;;5026728;28;20034;-60
2023/05/18 14:17:23;;;;;;;78.30;40.75;;;;;;;;;;5026975;28;20052;-63
2023/05/18 14:19:49;;;;;;;78.38;41.22;;;;;;;;;;5029150;28;20041;-60
2023/05/18 14:22:17;;;;;;;78.13;42.97;;;;;;;;;;5028468;28;20045;-60